NEODyS-2

Near Earth Objects - Dynamic Site
NEODyS ∴ Observatories ∴ Site 691 ∴ Obs & residuals
Contact »
691  ▹ 
OBSERVATIONS AND RESIDUALS

691-Steward Observatory, Kitt Peak-Spacewatch

Detections | Residuals | Detections & Residuals

[1-200] [201-400] [401-600] [601-800] [801-1000] [1001-1200] [1201-1400] [1401-1600] [1601-1800] [1801-2000] [2001-2200] [2201-2400] [2401-2600] [2601-2800] [2801-3000] [3001-3200] [3201-3400] [3401-3600] [3601-3800] [3801-4000] [4001-4200] [4201-4400] [4401-4600] [4601-4800] [4801-5000] [5001-5200] [5201-5400] [5401-5600] [5601-5800] [5801-6000] [6001-6200] [6201-6400] [6401-6600] [6601-6800] [6801-7000] [7001-7200] [7201-7400] [7401-7600] [7601-7800] [7801-8000] [8001-8200] [8201-8400] [8401-8600] [8601-8800] [8801-9000] [9001-9200] [9201-9400] [9401-9600] [9601-9800] [9801-10000] [10001-10200] [10201-10400] [10401-10600] [10601-10800] [10801-11000] [11001-11200] [11201-11400] [11401-11600] [11601-11800] [11801-12000] [12001-12200] [12201-12400] [12401-12600] [12601-12800] [12801-13000] [13001-13200] [13201-13400] [13401-13600] [13601-13800] [13801-14000] [14001-14200] [14201-14400] [14401-14600] [14601-14800] [14801-15000] [15001-15200] [15201-15400] [15401-15600] [15601-15800] [15801-16000] [16001-16200] [16201-16400] [16401-16600] [16601-16800] [16801-17000] [17001-17200] [17201-17400] [17401-17600] [17601-17800] [17801-18000] [18001-18200] [18201-18400] [18401-18600] [18601-18800] [18801-19000] [19001-19200] [19201-19400] [19401-19600] [19601-19800] [19801-20000] [20001-20200] [20201-20400] [20401-20600] [20601-20800] [20801-21000] [21001-21200] [21201-21400] [21401-21600] [21601-21800] [21801-22000] [22001-22200] [22201-22400] [22401-22600] [22601-22800] [22801-23000] [23001-23200] [23201-23400] [23401-23600] [23601-23800] [23801-24000] [24001-24200] [24201-24400] [24401-24600] [24601-24800] [24801-25000] [25001-25200] [25201-25400] [25401-25600] [25601-25800] [25801-26000] [26001-26200] [26201-26400] [26401-26600] [26601-26800] [26801-27000] [27001-27200] [27201-27400] [27401-27600] [27601-27800] [27801-28000] [28001-28200] [28201-28400] [28401-28600] [28601-28800] [28801-29000] [29001-29200] [29201-29400] [29401-29600] [29601-29800] [29801-30000] [30001-30200] [30201-30400] [30401-30600] [30601-30800] [30801-31000] [31001-31200] [31201-31400] [31401-31600] [31601-31800] [31801-32000] [32001-32200] [32201-32400] [32401-32600] [32601-32800] [32801-33000] [33001-33200] [33201-33400] [33401-33600] [33601-33800] [33801-34000] [34001-34200] [34201-34400] [34401-34600] [34601-34800] [34801-35000] [35001-35200] [35201-35400] [35401-35600] [35601-35800] [35801-36000] [36001-36200] [36201-36400] [36401-36600] [36601-36800] [36801-37000] [37001-37200] [37201-37400] [37401-37600] [37601-37800] [37801-38000] [38001-38200] [38201-38400] [38401-38600] [38601-38800] [38801-39000] [39001-39200] [39201-39400] [39401-39600] [39601-39800] [39801-40000] [40001-40200] [40201-40400] [40401-40600] [40601-40800] [40801-41000] [41001-41200] [41201-41400] [41401-41600] [41601-41800] [41801-42000] [42001-42200] [42201-42400] [42401-42600] [42601-42800] [42801-43000] [43001-43200] [43201-43400] [43401-43600] [43601-43800] [43801-44000] [44001-44200] [44201-44400] [44401-44600] [44601-44800] [44801-45000] [45001-45200] [45201-45400] [45401-45600] [45601-45800] [45801-46000] [46001-46200] [46201-46400] [46401-46600] [46601-46800] [46801-47000] [47001-47200] [47201-47400] [47401-47600] [47601-47800] [47801-48000] [48001-48200] [48201-48400] [48401-48600] [48601-48800] [48801-49000] [49001-49200] [49201-49400] [49401-49600] [49601-49800] [49801-50000] [50001-50200] [50201-50388]

Designation T Tech N Date Right Ascension Declination Apparent Magnitude Star Catalog Site code χ Used A Used M
yr-mo-day precision hr:min:sec precision rms F bias residual deg min sec precision rms F bias residual mag/col rms residual
2004FE3 O C 2007-02-21.23468 1.000E-05 10:49:58.520 1.500E-01 0.500 F 0.179 -0.607 +08° 00' 50.90" 1.000E-01 0.500 F 0.173 -0.156 21.4 V 0.70 0.25 o 691 1.26 Yes Yes
2004FE3 O C 2007-02-21.25622 1.000E-05 10:49:57.080 1.500E-01 0.500 F 0.179 -0.324 +08° 00' 55.40" 1.000E-01 0.500 F 0.173 0.038 21.5 V 0.70 0.35 o 691 0.65 Yes Yes
2004FE3 O C 2007-02-21.27776 1.000E-05 10:49:55.620 1.500E-01 0.500 F 0.179 -0.303 +08° 00' 59.70" 1.000E-01 0.500 F 0.173 0.039 21.3 V 0.70 0.15 o 691 0.61 Yes Yes
2007DX60 O C 2007-02-21.31676 1.000E-05 11:18:09.230 1.500E-01 0.500 F 0.156 -0.215 +06° 53' 34.90" 1.000E-01 0.500 F 0.134 0.187 21.8 V 0.70 0.26 o 691 0.58 Yes Yes
2007DX60 O C 2007-02-21.33853 1.000E-05 11:18:06.860 1.500E-01 0.500 F 0.156 0.015 +06° 53' 23.50" 1.000E-01 0.500 F 0.134 -0.624 21.2 V 0.70 -0.33 o 691 1.27 Yes Yes
2007DX60 O C 2007-02-21.36013 1.000E-05 11:18:04.490 1.500E-01 0.500 F 0.156 0.050 +06° 53' 14.00" 1.000E-01 0.500 F 0.134 0.426 21.5 V 0.70 -0.03 o 691 0.87 Yes Yes
2000FM10 O C H 2007-02-21.50379 1.000E-05 12:49:05.730 1.500E-01 0.500 F 0.135 0.095 +00° 12' 16.20" 1.000E-01 0.500 F 0.173 -0.393 21.5 V 0.70 0.10 o 691 0.81 Yes Yes
2000FM10 O C H 2007-02-21.54367 1.000E-05 12:49:03.230 1.500E-01 0.500 F 0.135 0.438 +00° 12' 31.20" 1.000E-01 0.500 F 0.173 -0.584 o 691 1.46 Yes No
1990UQ O C H 2007-02-22.10600 1.000E-05 07:23:46.380 1.500E-01 0.500 F 0.015 -0.328 +21° 13' 19.10" 1.000E-01 0.500 F 0.227 -0.714 21.8 V 0.70 0.45 o 691 1.57 Yes Yes
1990UQ O C H 2007-02-22.12491 1.000E-05 07:23:45.320 1.500E-01 0.500 F 0.015 -0.563 +21° 13' 23.60" 1.000E-01 0.500 F 0.227 -0.120 22.1 V 0.70 0.75 o 691 1.15 Yes Yes
2006OC5 O C H 2007-02-22.15753 1.000E-05 10:04:21.440 1.500E-01 0.500 F 0.042 0.461 +12° 09' 08.00" 1.000E-01 0.500 F 0.183 -0.333 20.9 V 0.70 0.16 o 691 1.16 Yes Yes
2006OC5 O C H 2007-02-22.17523 1.000E-05 10:04:19.840 1.500E-01 0.500 F 0.042 0.405 +12° 09' 20.10" 1.000E-01 0.500 F 0.183 -0.316 21.1 V 0.70 0.35 o 691 1.05 Yes Yes
2006OC5 O C H 2007-02-22.19292 1.000E-05 10:04:18.180 1.500E-01 0.500 F 0.042 -0.479 +12° 09' 32.00" 1.000E-01 0.500 F 0.183 -0.474 21.6 V 0.70 0.85 o 691 1.36 Yes Yes
2007DC O C H 2007-02-22.22227 1.000E-05 10:55:58.570 1.500E-01 0.500 F 0.096 0.332 +03° 49' 10.10" 1.000E-01 0.500 F -0.002 0.370 o 691 1.18 Yes No
2007DD O C t 2007-02-22.22227 1.000E-05 10:55:33.140 1.500E-01 0.500 F 0.099 -0.361 +02° 21' 12.70" 1.000E-01 0.500 F 0.061 -0.204 18.8 V 0.70 0.93 o 691 0.86 Yes Yes
2007DC O C H 2007-02-22.23995 1.000E-05 10:55:58.320 1.500E-01 0.500 F 0.096 -0.621 +03° 49' 29.10" 1.000E-01 0.500 F -0.002 0.455 21.8 V 0.70 -0.18 o 691 1.78 Yes Yes
2007DD O C t 2007-02-22.23995 1.000E-05 10:55:17.520 1.500E-01 0.500 F 0.099 -0.119 +02° 20' 22.60" 1.000E-01 0.500 F 0.061 -0.851 18.7 V 0.70 0.83 o 691 1.77 Yes Yes
2007DC O C H 2007-02-22.25764 1.000E-05 10:55:58.120 1.500E-01 0.500 F 0.096 0.183 +03° 49' 47.00" 1.000E-01 0.500 F -0.002 -0.441 o 691 1.08 Yes No
2007DD O C t 2007-02-22.25764 1.000E-05 10:55:01.790 1.500E-01 0.500 F 0.099 0.949 +02° 19' 33.60" 1.000E-01 0.500 F 0.061 -0.346 18.7 V 0.70 0.82 o 691 2.10 Yes Yes
2007DX O C H 2007-02-22.30432 1.000E-05 11:19:27.430 1.500E-01 0.500 F 0.056 0.413 +04° 18' 02.20" 1.000E-01 0.500 F 0.180 -0.222 21.6 V 0.70 0.66 o 691 0.96 Yes Yes
2007DX O C H 2007-02-22.32194 1.000E-05 11:19:28.700 1.500E-01 0.500 F 0.056 -0.616 +04° 17' 28.50" 1.000E-01 0.500 F 0.180 0.805 21.2 V 0.70 0.26 o 691 2.08 Yes Yes
2001SF262 O C 2007-02-23.30362 1.000E-05 11:42:44.910 1.500E-01 0.500 F 0.042 -0.363 +08° 20' 04.70" 1.000E-01 0.500 F 0.121 0.317 20.9 V 0.70 0.00 o 691 0.98 Yes Yes
2007DB56 O C 2007-02-23.30867 1.000E-05 11:26:42.320 1.500E-01 0.500 F 0.237 -0.241 +08° 29' 52.30" 1.000E-01 0.500 F 0.035 -0.070 19.4 V 0.70 0.52 o 691 0.51 Yes Yes
2001SF262 O C 2007-02-23.32126 1.000E-05 11:42:42.440 1.500E-01 0.500 F 0.042 -0.257 +08° 19' 55.50" 1.000E-01 0.500 F 0.121 -0.341 21.0 V 0.70 0.10 o 691 0.86 Yes Yes
2007DB56 O C 2007-02-23.32631 1.000E-05 11:26:40.870 1.500E-01 0.500 F 0.237 -0.223 +08° 29' 41.90" 1.000E-01 0.500 F 0.035 0.211 19.4 V 0.70 0.52 o 691 0.63 Yes Yes
2001SF262 O C 2007-02-23.33890 1.000E-05 11:42:39.960 1.500E-01 0.500 F 0.042 -0.262 +08° 19' 47.30" 1.000E-01 0.500 F 0.121 0.014 21.1 V 0.70 0.21 o 691 0.53 Yes Yes
2007DB56 O C 2007-02-23.34394 1.000E-05 11:26:39.410 1.500E-01 0.500 F 0.237 -0.315 +08° 29' 31.00" 1.000E-01 0.500 F 0.035 0.014 19.4 V 0.70 0.52 o 691 0.64 Yes Yes
1996HW1 O C 2007-02-23.35329 1.000E-05 11:45:45.770 1.500E-01 0.500 F 0.321 -0.119 -00° 17' 22.70" 1.000E-01 0.500 F 0.091 -0.106 20.0 V 0.70 0.34 o 691 0.32 Yes Yes
1996HW1 O C 2007-02-23.37091 1.000E-05 11:45:44.800 1.500E-01 0.500 F 0.321 -0.469 -00° 17' 14.80" 1.000E-01 0.500 F 0.091 0.038 20.2 V 0.70 0.54 o 691 0.94 Yes Yes
1996HW1 O C 2007-02-23.38607 1.000E-05 11:45:43.990 1.500E-01 0.500 F 0.321 -0.397 -00° 17' 08.20" 1.000E-01 0.500 F 0.091 -0.038 20.0 V 0.70 0.34 o 691 0.80 Yes Yes
1998RO4 O C H 2007-02-23.40762 1.000E-05 12:04:10.390 1.500E-01 0.500 F 0.158 0.160 -03° 43' 51.40" 1.000E-01 0.500 F 0.081 -0.054 o 691 0.34 Yes No
2005TJ174 O C H 2007-02-23.41268 1.000E-05 12:10:55.700 1.500E-01 0.500 F 0.214 -1.218 -05° 50' 06.90" 1.000E-01 0.500 F 0.069 -0.915 21.2 V 0.70 -0.49 o 691 3.05 Yes Yes
1998RO4 O C H 2007-02-23.42524 1.000E-05 12:04:09.580 1.500E-01 0.500 F 0.158 -0.121 -03° 43' 45.50" 1.000E-01 0.500 F 0.081 -0.063 o 691 0.27 Yes No
2005EG94 O C H 2007-02-23.43535 1.000E-05 11:56:03.040 1.500E-01 0.500 F 0.120 -0.447 -05° 41' 15.90" 1.000E-01 0.500 F 0.142 -0.109 21.8 V 0.70 -0.01 o 691 0.93 Yes Yes
1998RO4 O C H 2007-02-23.44287 1.000E-05 12:04:08.780 1.500E-01 0.500 F 0.158 -0.252 -03° 43' 40.10" 1.000E-01 0.500 F 0.081 -0.584 o 691 1.27 Yes No
2005EG94 O C H 2007-02-23.45312 1.000E-05 11:56:01.610 1.500E-01 0.500 F 0.120 0.519 -05° 41' 12.90" 1.000E-01 0.500 F 0.142 -0.268 o 691 1.18 Yes No
1990SA O C 2007-02-23.47415 1.000E-05 12:31:10.820 1.500E-01 0.500 F 0.133 -0.113 -03° 19' 25.10" 1.000E-01 0.500 F 0.157 0.102 19.6 V 0.70 0.33 o 691 0.30 Yes Yes
1990SA O C 2007-02-23.49203 1.000E-05 12:31:10.460 1.500E-01 0.500 F 0.133 -0.011 -03° 18' 58.20" 1.000E-01 0.500 F 0.157 0.021 19.7 V 0.70 0.43 o 691 0.05 Yes Yes
1990SA O C 2007-02-23.50972 1.000E-05 12:31:10.080 1.500E-01 0.500 F 0.133 -0.301 -03° 18' 31.70" 1.000E-01 0.500 F 0.157 -0.191 20.1 V 0.70 0.83 o 691 0.72 Yes Yes
2005JF21 O C H 2007-02-25.19821 1.000E-05 10:02:04.860 1.500E-01 0.500 F 0.048 -0.139 +16° 53' 46.60" 1.000E-01 0.500 F 0.241 -0.095 o 691 0.33 Yes No
2005JF21 O C H 2007-02-25.21937 1.000E-05 10:02:03.640 1.500E-01 0.500 F 0.048 0.598 +16° 53' 56.50" 1.000E-01 0.500 F 0.241 1.268 o 691 2.80 Yes No
2004FE3 O C 2007-02-25.25231 1.000E-05 10:45:26.500 1.500E-01 0.500 F 0.164 -0.369 +08° 14' 16.90" 1.000E-01 0.500 F 0.266 -0.277 20.9 V 0.70 -0.11 o 691 0.93 Yes Yes
2003HR32 O C H 2007-02-25.25477 1.000E-05 10:48:43.660 1.500E-01 0.500 F 0.179 1.368 +08° 17' 09.70" 1.000E-01 0.500 F 0.174 -0.069 o 691 2.75 Yes No
2004FE3 O C 2007-02-25.26994 1.000E-05 10:45:25.290 1.500E-01 0.500 F 0.164 -0.060 +08° 14' 20.70" 1.000E-01 0.500 F 0.266 -0.063 21.1 V 0.70 0.10 o 691 0.17 Yes Yes
2004FE3 O C 2007-02-25.29447 1.000E-05 10:45:23.550 1.500E-01 0.500 F 0.164 -0.442 +08° 14' 25.70" 1.000E-01 0.500 F 0.266 -0.043 21.0 V 0.70 0.00 o 691 0.89 Yes Yes
2003HR32 O C H 2007-02-25.29693 1.000E-05 10:48:40.190 1.500E-01 0.500 F 0.179 0.672 +08° 17' 26.30" 1.000E-01 0.500 F 0.174 -0.089 21.5 V 0.70 -0.60 o 691 1.37 Yes Yes
2007DB56 O C 2007-02-25.32642 1.000E-05 11:24:08.130 1.500E-01 0.500 F 0.207 -0.225 +08° 09' 33.30" 1.000E-01 0.500 F 0.111 -0.062 19.4 V 0.70 0.57 o 691 0.47 Yes Yes
2007DX60 O C 2007-02-25.33407 1.000E-05 11:10:51.770 1.500E-01 0.500 F 0.181 0.659 +06° 20' 04.30" 1.000E-01 0.500 F 0.123 0.371 21.5 V 0.70 0.23 o 691 1.53 Yes Yes
2007DB56 O C 2007-02-25.34756 1.000E-05 11:24:06.360 1.500E-01 0.500 F 0.207 -0.083 +08° 09' 20.90" 1.000E-01 0.500 F 0.111 0.156 19.4 V 0.70 0.57 o 691 0.36 Yes Yes
2007DX60 O C 2007-02-25.35867 1.000E-05 11:10:48.670 1.500E-01 0.500 F 0.181 0.024 +06° 19' 51.20" 1.000E-01 0.500 F 0.123 -0.118 21.4 V 0.70 0.13 o 691 0.24 Yes Yes
2007DB56 O C 2007-02-25.36872 1.000E-05 11:24:04.560 1.500E-01 0.500 F 0.207 -0.342 +08° 09' 07.90" 1.000E-01 0.500 F 0.111 -0.176 19.4 V 0.70 0.57 o 691 0.78 Yes Yes
2007DX60 O C 2007-02-25.37637 1.000E-05 11:10:46.450 1.500E-01 0.500 F 0.181 -0.277 +06° 19' 42.00" 1.000E-01 0.500 F 0.123 -0.209 21.1 V 0.70 -0.17 o 691 0.70 Yes Yes
2003CY18 O C H 2007-02-26.47721 1.000E-05 16:14:08.260 1.500E-01 0.500 F 0.318 -0.461 -09° 46' 17.00" 1.000E-01 0.500 F 0.153 0.216 20.4 V 0.70 0.13 o 691 1.02 Yes Yes
2003CY18 O C H 2007-02-26.49326 1.000E-05 16:14:11.690 1.500E-01 0.500 F 0.318 -0.247 -09° 46' 20.20" 1.000E-01 0.500 F 0.153 0.032 20.6 V 0.70 0.34 o 691 0.50 Yes Yes
2007DJ O C t 2007-02-27.13784 1.000E-05 09:49:23.770 1.500E-01 0.500 F -0.026 1.113 +13° 28' 15.50" 1.000E-01 0.500 F 0.261 0.015 17.6 V 0.70 0.10 o 691 2.37 Yes Yes
2007DJ O C H 2007-02-27.15812 1.000E-05 09:49:47.700 1.500E-01 0.500 F -0.010 0.392 +13° 32' 14.70" 1.000E-01 0.500 F 0.218 -0.641 o 691 1.54 Yes No
Boreas O C 2007-02-27.17487 1.000E-05 10:36:25.250 1.500E-01 0.500 F 0.086 -0.336 +10° 01' 48.60" 1.000E-01 0.500 F 0.226 -0.077 o 691 0.69 Yes No
Boreas O C 2007-02-27.19253 1.000E-05 10:36:24.080 1.500E-01 0.500 F 0.086 -0.264 +10° 01' 52.50" 1.000E-01 0.500 F 0.226 -0.071 o 691 0.55 Yes No
Boreas O C 2007-02-27.21018 1.000E-05 10:36:22.890 1.500E-01 0.500 F 0.086 -0.466 +10° 01' 56.50" 1.000E-01 0.500 F 0.226 0.044 o 691 0.94 Yes No
1996HW1 O C 2007-02-27.33329 1.000E-05 11:42:11.100 1.500E-01 0.500 F 0.295 -0.297 +00° 12' 45.80" 1.000E-01 0.500 F 0.127 -0.121 o 691 0.64 Yes No
1996HW1 O C 2007-02-27.35093 1.000E-05 11:42:10.090 1.500E-01 0.500 F 0.295 -0.327 +00° 12' 54.20" 1.000E-01 0.500 F 0.127 0.027 o 691 0.66 Yes No
1996HW1 O C 2007-02-27.36611 1.000E-05 11:42:09.200 1.500E-01 0.500 F 0.295 -0.660 +00° 13' 01.30" 1.000E-01 0.500 F 0.127 0.025 o 691 1.32 Yes No
1999CU3 O C 2007-03-09.12214 1.000E-05 09:47:26.760 1.500E-01 0.500 F -0.026 -0.274 +13° 46' 04.50" 1.000E-01 0.500 F 0.261 -0.015 19.0 V 0.70 1.06 o 691 0.55 Yes Yes
1999CU3 O C 2007-03-09.13903 1.000E-05 09:47:24.200 1.500E-01 0.500 F -0.026 -0.182 +13° 46' 06.10" 1.000E-01 0.500 F 0.261 -0.019 19.1 V 0.70 1.16 o 691 0.37 Yes Yes
1999CU3 O C 2007-03-09.15591 1.000E-05 09:47:21.620 1.500E-01 0.500 F -0.101 -0.249 +13° 46' 07.80" 1.000E-01 0.500 F 0.332 0.033 18.5 V 0.70 0.56 o 691 0.50 Yes Yes
1996HW1 O C 2007-03-09.21043 1.000E-05 11:32:33.260 1.500E-01 0.500 F 0.105 -0.152 +01° 33' 47.70" 1.000E-01 0.500 F 0.141 -0.067 19.8 V 0.70 0.51 o 691 0.33 Yes Yes
2007EK O C 2007-03-09.21547 1.000E-05 11:19:27.580 1.500E-01 0.500 F 0.048 -0.305 +01° 52' 55.80" 1.000E-01 0.500 F 0.089 -0.508 21.3 V 0.70 0.26 o 691 1.24 Yes Yes
1996HW1 O C 2007-03-09.22809 1.000E-05 11:32:32.160 1.500E-01 0.500 F 0.105 -0.278 +01° 33' 56.80" 1.000E-01 0.500 F 0.141 0.016 19.6 V 0.70 0.31 o 691 0.56 Yes Yes
2007EK O C 2007-03-09.23313 1.000E-05 11:19:30.440 1.500E-01 0.500 F 0.048 0.139 +01° 53' 29.80" 1.000E-01 0.500 F 0.089 0.219 21.0 V 0.70 -0.03 o 691 0.55 Yes Yes
1996HW1 O C 2007-03-09.24574 1.000E-05 11:32:31.070 1.500E-01 0.500 F 0.105 -0.235 +01° 34' 05.80" 1.000E-01 0.500 F 0.141 0.004 19.6 V 0.70 0.31 o 691 0.47 Yes Yes
2007EK O C 2007-03-09.25078 1.000E-05 11:19:33.120 1.500E-01 0.500 F 0.048 -0.011 +01° 54' 02.90" 1.000E-01 0.500 F 0.089 -0.107 21.0 V 0.70 -0.02 o 691 0.23 Yes Yes
2007EL O C 2007-03-09.26586 1.000E-05 12:28:30.030 1.500E-01 0.500 F 0.282 1.266 +00° 42' 38.80" 1.000E-01 0.500 F 0.201 0.164 20.3 V 0.70 -0.03 o 691 2.59 Yes Yes
2007EL O C 2007-03-09.28100 1.000E-05 12:28:27.350 1.500E-01 0.500 F 0.282 -0.166 +00° 42' 19.80" 1.000E-01 0.500 F 0.201 0.190 20.6 V 0.70 0.27 o 691 0.51 Yes Yes
2007EL O C 2007-03-09.29613 1.000E-05 12:28:24.790 1.500E-01 0.500 F 0.282 0.250 +00° 42' 00.30" 1.000E-01 0.500 F 0.201 -0.289 20.6 V 0.70 0.27 o 691 0.77 Yes Yes
2005GW119 O C H 2007-03-09.42187 1.000E-05 13:21:51.880 1.500E-01 0.500 F 0.120 0.412 -07° 12' 50.00" 1.000E-01 0.500 F -0.013 0.098 20.6 V 0.70 -0.08 o 691 0.85 Yes Yes
2005GW119 O C H 2007-03-09.43952 1.000E-05 13:21:50.900 1.500E-01 0.500 F 0.120 0.077 -07° 12' 42.30" 1.000E-01 0.500 F -0.013 -0.545 20.7 V 0.70 0.02 o 691 1.10 Yes Yes
2005GW119 O C H 2007-03-09.45719 1.000E-05 13:21:49.960 1.500E-01 0.500 F 0.120 0.341 -07° 12' 33.60" 1.000E-01 0.500 F -0.013 -0.213 21.1 V 0.70 0.42 o 691 0.81 Yes Yes
4788P-L O C 2007-03-09.47970 1.000E-05 13:49:37.640 1.500E-01 0.500 F 0.195 -0.195 -07° 06' 03.10" 1.000E-01 0.500 F -0.010 -0.160 18.8 V 0.70 0.40 o 691 0.51 Yes Yes
4788P-L O C 2007-03-09.49729 1.000E-05 13:49:38.270 1.500E-01 0.500 F 0.195 -0.160 -07° 05' 52.90" 1.000E-01 0.500 F -0.010 0.004 18.9 V 0.70 0.50 o 691 0.32 Yes Yes
4788P-L O C 2007-03-09.51843 1.000E-05 13:49:39.020 1.500E-01 0.500 F 0.195 -0.280 -07° 05' 40.70" 1.000E-01 0.500 F -0.010 0.117 18.7 V 0.70 0.30 o 691 0.61 Yes Yes
2002AM31 O C 2007-03-10.22027 1.000E-05 11:26:04.760 1.500E-01 0.500 F 0.126 -0.451 +07° 11' 12.80" 1.000E-01 0.500 F 0.112 0.120 21.6 V 0.70 0.38 o 691 0.93 Yes Yes
2002AM31 O C 2007-03-10.23786 1.000E-05 11:26:03.400 1.500E-01 0.500 F 0.126 0.052 +07° 11' 23.80" 1.000E-01 0.500 F 0.112 0.689 20.8 V 0.70 -0.42 o 691 1.38 Yes Yes
2002AM31 O C 2007-03-10.25544 1.000E-05 11:26:01.940 1.500E-01 0.500 F 0.126 -0.912 +07° 11' 34.00" 1.000E-01 0.500 F 0.112 0.470 21.5 V 0.70 0.28 o 691 2.05 Yes Yes
2002AD9 O C 2007-03-10.27821 1.000E-05 12:13:50.280 1.500E-01 0.500 F 0.228 -0.269 +04° 08' 46.00" 1.000E-01 0.500 F 0.163 0.054 20.8 V 0.70 0.20 o 691 0.55 Yes Yes
1990SA O C 2007-03-10.28067 1.000E-05 12:22:52.180 1.500E-01 0.500 F 0.034 -0.265 +04° 16' 36.10" 1.000E-01 0.500 F 0.214 -0.291 19.0 V 0.70 0.47 o 691 0.79 Yes Yes
2000FM10 O C 2007-03-10.28572 1.000E-05 12:27:29.980 1.500E-01 0.500 F 0.086 -0.033 +02° 18' 43.20" 1.000E-01 0.500 F 0.241 0.246 20.6 V 0.70 -0.36 o 691 0.50 Yes Yes
2002AD9 O C 2007-03-10.29587 1.000E-05 12:13:48.440 1.500E-01 0.500 F 0.228 -0.835 +04° 08' 52.00" 1.000E-01 0.500 F 0.163 -0.235 20.6 V 0.70 0.00 o 691 1.74 Yes Yes
1990SA O C 2007-03-10.29832 1.000E-05 12:22:51.250 1.500E-01 0.500 F 0.034 -0.363 +04° 17' 14.60" 1.000E-01 0.500 F 0.214 -0.199 19.1 V 0.70 0.57 o 691 0.83 Yes Yes
2000FM10 O C 2007-03-10.30337 1.000E-05 12:27:28.350 1.500E-01 0.500 F 0.086 -0.063 +02° 18' 51.80" 1.000E-01 0.500 F 0.241 -0.063 21.3 V 0.70 0.34 o 691 0.18 Yes Yes
2002AD9 O C 2007-03-10.31697 1.000E-05 12:13:46.310 1.500E-01 0.500 F 0.228 -0.463 +04° 08' 59.50" 1.000E-01 0.500 F 0.163 -0.244 20.7 V 0.70 0.11 o 691 1.05 Yes Yes
1990SA O C 2007-03-10.31942 1.000E-05 12:22:50.140 1.500E-01 0.500 F 0.034 -0.393 +04° 18' 00.80" 1.000E-01 0.500 F 0.214 0.077 19.0 V 0.70 0.47 o 691 0.80 Yes Yes
2000FM10 O C 2007-03-10.32447 1.000E-05 12:27:26.370 1.500E-01 0.500 F 0.086 -0.532 +02° 19' 02.30" 1.000E-01 0.500 F 0.241 -0.212 21.1 V 0.70 0.14 o 691 1.15 Yes Yes
1999CU3 O C 2007-03-11.11809 1.000E-05 09:42:31.580 1.500E-01 0.500 F -0.101 -0.251 +13° 48' 22.60" 1.000E-01 0.500 F 0.332 0.008 18.2 V 0.70 0.23 o 691 0.50 Yes Yes
1999CU3 O C 2007-03-11.13163 1.000E-05 09:42:29.550 1.500E-01 0.500 F -0.101 -0.191 +13° 48' 23.40" 1.000E-01 0.500 F 0.332 -0.075 18.2 V 0.70 0.23 o 691 0.41 Yes Yes
1999CU3 O C 2007-03-11.14518 1.000E-05 09:42:27.510 1.500E-01 0.500 F -0.101 -0.206 +13° 48' 24.30" 1.000E-01 0.500 F 0.332 -0.041 18.2 V 0.70 0.23 o 691 0.42 Yes Yes
Zephyr O C 2007-03-11.21264 1.000E-05 11:44:06.660 1.500E-01 0.500 F 0.332 -0.260 +02° 32' 37.40" 1.000E-01 0.500 F 0.303 0.058 19.2 V 0.70 0.49 o 691 0.53 Yes Yes
Zephyr O C 2007-03-11.23023 1.000E-05 11:44:05.380 1.500E-01 0.500 F 0.332 -0.211 +02° 32' 47.80" 1.000E-01 0.500 F 0.303 0.013 19.2 V 0.70 0.50 o 691 0.42 Yes Yes
Zephyr O C 2007-03-11.24782 1.000E-05 11:44:04.070 1.500E-01 0.500 F 0.332 -0.570 +02° 32' 58.00" 1.000E-01 0.500 F 0.303 -0.231 19.2 V 0.70 0.50 o 691 1.23 Yes Yes
1999HP11 O C H 2007-03-11.26168 1.000E-05 12:34:02.150 1.500E-01 0.500 F 0.202 -0.235 +07° 14' 08.20" 1.000E-01 0.500 F 0.125 -1.047 o 691 2.16 Yes No
1990SA O C 2007-03-11.26932 1.000E-05 12:22:02.520 1.500E-01 0.500 F 0.105 -0.286 +04° 52' 45.00" 1.000E-01 0.500 F 0.190 -0.029 19.1 V 0.70 0.62 o 691 0.58 Yes Yes
1999HP11 O C H 2007-03-11.27928 1.000E-05 12:34:00.270 1.500E-01 0.500 F 0.171 -2.017 +07° 14' 13.80" 1.000E-01 0.500 F 0.130 -0.835 21.7 V 0.70 -0.12 o 691 4.34 No Yes
1990SA O C 2007-03-11.28691 1.000E-05 12:22:01.570 1.500E-01 0.500 F 0.105 -0.224 +04° 53' 24.00" 1.000E-01 0.500 F 0.190 0.006 19.9 V 0.70 1.42 o 691 0.45 Yes Yes
1999HP11 O C H 2007-03-11.29687 1.000E-05 12:33:58.610 1.500E-01 0.500 F 0.171 -0.519 +07° 14' 20.60" 1.000E-01 0.500 F 0.130 0.595 21.7 V 0.70 -0.12 o 691 1.59 Yes Yes
1990SA O C 2007-03-11.30451 1.000E-05 12:22:00.610 1.500E-01 0.500 F 0.105 -0.252 +04° 54' 03.00" 1.000E-01 0.500 F 0.190 0.016 19.0 V 0.70 0.52 o 691 0.51 Yes Yes
2002AV4 O C 2007-03-11.32340 1.000E-05 12:45:18.000 1.500E-01 0.500 F 0.123 -0.228 +01° 01' 15.80" 1.000E-01 0.500 F 0.178 -0.008 19.4 V 0.70 0.09 o 691 0.46 Yes Yes
2002AV4 O C 2007-03-11.34107 1.000E-05 12:45:16.540 1.500E-01 0.500 F 0.123 -0.232 +01° 01' 22.40" 1.000E-01 0.500 F 0.178 -0.115 19.5 V 0.70 0.19 o 691 0.52 Yes Yes
2002AV4 O C 2007-03-11.35873 1.000E-05 12:45:15.080 1.500E-01 0.500 F 0.123 -0.225 +01° 01' 29.10" 1.000E-01 0.500 F 0.178 -0.120 19.6 V 0.70 0.29 o 691 0.51 Yes Yes
Oze O C 2007-03-12.37000 1.000E-05 12:48:23.540 1.500E-01 0.500 F 0.275 -0.541 -12° 07' 00.60" 1.000E-01 0.500 F 0.107 -0.029 20.2 V 0.70 0.55 o 691 1.08 Yes Yes
Lyapunov O C 2007-03-12.37000 1.000E-05 12:42:30.170 1.500E-01 0.500 F 0.316 -0.156 -12° 14' 42.70" 1.000E-01 0.500 F 0.071 -0.096 19.9 V 0.70 0.25 o 691 0.37 Yes Yes
Oze O C 2007-03-12.38768 1.000E-05 12:48:22.650 1.500E-01 0.500 F 0.275 -0.184 -12° 06' 56.20" 1.000E-01 0.500 F 0.107 -0.067 20.1 V 0.70 0.45 o 691 0.39 Yes Yes
Lyapunov O C 2007-03-12.38768 1.000E-05 12:42:29.110 1.500E-01 0.500 F 0.316 0.024 -12° 14' 43.50" 1.000E-01 0.500 F 0.071 -0.041 20.0 V 0.70 0.35 o 691 0.09 Yes Yes
Oze O C 2007-03-12.40537 1.000E-05 12:48:21.740 1.500E-01 0.500 F 0.275 -0.111 -12° 06' 52.00" 1.000E-01 0.500 F 0.107 -0.319 20.1 V 0.70 0.45 o 691 0.68 Yes Yes
Lyapunov O C 2007-03-12.40537 1.000E-05 12:42:28.020 1.500E-01 0.500 F 0.316 -0.226 -12° 14' 44.40" 1.000E-01 0.500 F 0.071 -0.097 19.9 V 0.70 0.25 o 691 0.49 Yes Yes
2007FD O C H 2007-03-12.41448 1.000E-05 13:01:26.510 1.500E-01 0.500 F 0.085 -0.263 -13° 14' 57.70" 1.000E-01 0.500 F 0.097 0.099 o 691 0.57 Yes No
2007FD O C H 2007-03-12.43227 1.000E-05 13:01:25.290 1.500E-01 0.500 F 0.085 0.392 -13° 14' 50.90" 1.000E-01 0.500 F 0.097 -1.283 o 691 2.70 Yes No
2007FD O C H 2007-03-12.44997 1.000E-05 13:01:24.030 1.500E-01 0.500 F 0.085 0.357 -13° 14' 41.30" 1.000E-01 0.500 F 0.097 0.160 o 691 0.79 Yes No
2005GW119 O C 2007-03-13.33516 1.000E-05 13:18:15.560 1.500E-01 0.500 F 0.139 -0.275 -06° 40' 13.90" 1.000E-01 0.500 F 0.049 -0.017 20.9 V 0.70 0.32 o 691 0.55 Yes Yes
2005GW119 O C 2007-03-13.35284 1.000E-05 13:18:14.460 1.500E-01 0.500 F 0.139 -0.052 -06° 40' 04.80" 1.000E-01 0.500 F 0.049 -0.209 20.7 V 0.70 0.12 o 691 0.43 Yes Yes
2005GW119 O C 2007-03-13.37051 1.000E-05 13:18:13.310 1.500E-01 0.500 F 0.139 -0.550 -06° 39' 55.30" 1.000E-01 0.500 F 0.049 -0.011 20.7 V 0.70 0.12 o 691 1.11 Yes Yes
4788P-L O C 2007-03-13.39552 1.000E-05 13:52:00.780 1.500E-01 0.500 F 0.179 -0.229 -06° 25' 23.20" 1.000E-01 0.500 F 0.018 0.106 18.5 V 0.70 0.30 o 691 0.50 Yes Yes
4788P-L O C 2007-03-13.41313 1.000E-05 13:52:01.310 1.500E-01 0.500 F 0.179 -0.229 -06° 25' 11.30" 1.000E-01 0.500 F 0.018 0.035 18.5 V 0.70 0.31 o 691 0.46 Yes Yes
4788P-L O C 2007-03-13.43075 1.000E-05 13:52:01.830 1.500E-01 0.500 F 0.179 -0.374 -06° 24' 59.40" 1.000E-01 0.500 F 0.018 -0.064 18.5 V 0.70 0.31 o 691 0.76 Yes Yes
2002EZ11 O C 2007-03-13.44965 1.000E-05 14:13:00.560 1.500E-01 0.500 F 0.178 0.248 -10° 43' 09.60" 1.000E-01 0.500 F -0.048 -0.246 21.3 V 0.70 0.28 o 691 0.70 Yes Yes
2000NG11 O C H 2007-03-13.45723 1.000E-05 14:10:32.130 1.500E-01 0.500 F 0.306 0.209 -12° 20' 57.30" 1.000E-01 0.500 F 0.080 -0.421 21.1 V 0.70 -0.08 o 691 0.94 Yes Yes
2002EZ11 O C 2007-03-13.46728 1.000E-05 14:12:59.090 1.500E-01 0.500 F 0.178 -0.280 -10° 43' 00.80" 1.000E-01 0.500 F -0.048 0.326 20.8 V 0.70 -0.22 o 691 0.86 Yes Yes
2000NG11 O C H 2007-03-13.47487 1.000E-05 14:10:31.430 1.500E-01 0.500 F 0.306 -1.037 -12° 20' 54.00" 1.000E-01 0.500 F 0.080 -0.266 21.0 V 0.70 -0.18 o 691 2.14 Yes Yes
2002EZ11 O C 2007-03-13.48493 1.000E-05 14:12:57.660 1.500E-01 0.500 F 0.178 -0.198 -10° 42' 53.30" 1.000E-01 0.500 F -0.048 -0.431 21.3 V 0.70 0.28 o 691 0.95 Yes Yes
2000NG11 O C H 2007-03-13.49251 1.000E-05 14:10:30.870 1.500E-01 0.500 F 0.306 -0.239 -12° 20' 51.80" 1.000E-01 0.500 F 0.080 -1.225 20.9 V 0.70 -0.28 o 691 2.50 Yes Yes
2002AM31 O C H 2007-03-14.11023 1.000E-05 11:21:02.580 1.500E-01 0.500 F 0.181 -0.634 +07° 49' 10.20" 1.000E-01 0.500 F 0.123 -0.711 o 691 1.91 Yes No
2007CO26 O C 2007-03-14.11515 1.000E-05 11:39:44.020 1.500E-01 0.500 F 0.062 -0.199 +07° 45' 09.70" 1.000E-01 0.500 F 0.117 -0.288 18.5 V 0.70 0.59 o 691 0.71 Yes Yes
2002AM31 O C H 2007-03-14.12785 1.000E-05 11:21:01.250 1.500E-01 0.500 F 0.181 0.178 +07° 49' 20.30" 1.000E-01 0.500 F 0.123 -0.883 21.0 V 0.70 -0.30 o 691 1.80 Yes Yes
2007CO26 O C 2007-03-14.13277 1.000E-05 11:39:45.640 1.500E-01 0.500 F 0.062 -0.198 +07° 43' 55.70" 1.000E-01 0.500 F 0.117 -0.013 18.4 V 0.70 0.49 o 691 0.40 Yes Yes
2002AM31 O C H 2007-03-14.14547 1.000E-05 11:20:59.890 1.500E-01 0.500 F 0.181 0.600 +07° 49' 31.40" 1.000E-01 0.500 F 0.123 -0.051 o 691 1.20 Yes No
2007CO26 O C 2007-03-14.15039 1.000E-05 11:39:47.280 1.500E-01 0.500 F 0.062 0.685 +07° 42' 42.00" 1.000E-01 0.500 F 0.117 0.523 18.1 V 0.70 0.18 o 691 1.75 Yes Yes
2007EK88 O C 2007-03-14.38989 1.000E-05 13:31:42.280 1.500E-01 0.500 F 0.116 -0.148 -13° 07' 54.00" 1.000E-01 0.500 F 0.028 -0.168 20.1 V 0.70 0.42 o 691 0.45 Yes Yes
1995LE O C 2007-03-14.39994 1.000E-05 13:36:34.930 1.500E-01 0.500 F 0.126 -0.110 -15° 34' 06.70" 1.000E-01 0.500 F 0.113 -0.588 21.1 V 0.70 -0.75 o 691 1.19 Yes Yes
2007EK88 O C 2007-03-14.40753 1.000E-05 13:31:46.310 1.500E-01 0.500 F 0.116 -0.037 -13° 07' 00.00" 1.000E-01 0.500 F 0.028 0.248 20.6 V 0.70 0.93 o 691 0.51 Yes Yes
1995LE O C 2007-03-14.41758 1.000E-05 13:36:34.250 1.500E-01 0.500 F 0.126 -0.117 -15° 34' 03.70" 1.000E-01 0.500 F 0.113 -0.103 21.2 V 0.70 -0.65 o 691 0.31 Yes Yes
2007EK88 O C 2007-03-14.42517 1.000E-05 13:31:50.320 1.500E-01 0.500 F 0.116 -0.262 -13° 06' 06.60" 1.000E-01 0.500 F 0.028 -0.082 20.3 V 0.70 0.63 o 691 0.56 Yes Yes
1995LE O C 2007-03-14.43522 1.000E-05 13:36:33.550 1.500E-01 0.500 F 0.126 -0.412 -15° 34' 01.40" 1.000E-01 0.500 F 0.113 -0.333 21.7 V 0.70 -0.15 o 691 1.06 Yes Yes
Zephyr O C 2007-03-15.18890 1.000E-05 11:39:17.470 1.500E-01 0.500 F 0.259 -0.232 +03° 12' 32.50" 1.000E-01 0.500 F 0.345 -0.119 18.8 V 0.70 0.31 o 691 0.52 Yes Yes
Zephyr O C 2007-03-15.20652 1.000E-05 11:39:16.130 1.500E-01 0.500 F 0.259 -0.342 +03° 12' 43.30" 1.000E-01 0.500 F 0.345 -0.095 18.9 V 0.70 0.41 o 691 0.71 Yes Yes
Zephyr O C 2007-03-15.22415 1.000E-05 11:39:14.790 1.500E-01 0.500 F 0.259 -0.397 +03° 12' 54.20" 1.000E-01 0.500 F 0.345 0.025 19.4 V 0.70 0.91 o 691 0.80 Yes Yes
2002AV4 O C 2007-03-15.25817 1.000E-05 12:39:46.510 1.500E-01 0.500 F 0.172 -0.354 +01° 26' 58.40" 1.000E-01 0.500 F 0.163 0.019 19.5 V 0.70 0.35 o 691 0.71 Yes Yes
2002AV4 O C 2007-03-15.27587 1.000E-05 12:39:44.940 1.500E-01 0.500 F 0.172 -0.061 +01° 27' 05.50" 1.000E-01 0.500 F 0.163 -0.033 19.5 V 0.70 0.35 o 691 0.14 Yes Yes
2002AV4 O C 2007-03-15.29357 1.000E-05 12:39:43.340 1.500E-01 0.500 F 0.172 -0.177 +01° 27' 12.70" 1.000E-01 0.500 F 0.163 0.014 19.4 V 0.70 0.25 o 691 0.36 Yes Yes
2007EM88 O C 2007-03-15.30606 1.000E-05 13:09:40.760 1.500E-01 0.500 F 0.308 -0.353 +00° 20' 56.40" 1.000E-01 0.500 F 0.144 -0.229 21.5 V 0.70 0.14 o 691 0.85 Yes Yes
2007EM88 O C 2007-03-15.32370 1.000E-05 13:09:39.420 1.500E-01 0.500 F 0.308 0.019 +00° 21' 05.20" 1.000E-01 0.500 F 0.144 -0.271 21.4 V 0.70 0.04 o 691 0.55 Yes Yes
2007EM88 O C 2007-03-15.34133 1.000E-05 13:09:37.990 1.500E-01 0.500 F 0.308 -0.926 +00° 21' 14.10" 1.000E-01 0.500 F 0.144 -0.209 21.6 V 0.70 0.24 o 691 1.92 Yes Yes
2001PF14 O C H 2007-03-15.36142 1.000E-05 13:29:44.270 1.500E-01 0.500 F 0.211 0.818 -02° 20' 54.10" 1.000E-01 0.500 F 0.030 0.310 o 691 1.80 Yes No
2001PF14 O C H 2007-03-15.37905 1.000E-05 13:29:43.510 1.500E-01 0.500 F 0.211 -0.164 -02° 20' 51.20" 1.000E-01 0.500 F 0.030 0.497 o 691 1.10 Yes No
2001PF14 O C H 2007-03-15.39668 1.000E-05 13:29:42.830 1.500E-01 0.500 F 0.211 0.071 -02° 20' 49.20" 1.000E-01 0.500 F 0.030 -0.221 21.3 V 0.70 -0.56 o 691 0.49 Yes Yes
1999CU3 O C 2007-03-16.12703 1.000E-05 09:30:34.350 1.500E-01 0.500 F 0.090 -0.408 +13° 49' 37.20" 1.000E-01 0.500 F 0.197 -0.034 18.3 V 0.70 0.24 o 691 0.82 Yes Yes
1999CU3 O C 2007-03-16.14863 1.000E-05 09:30:31.280 1.500E-01 0.500 F 0.090 -0.287 +13° 49' 36.80" 1.000E-01 0.500 F 0.197 -0.066 18.2 V 0.70 0.14 o 691 0.59 Yes Yes
1999CU3 O C 2007-03-16.17023 1.000E-05 09:30:28.190 1.500E-01 0.500 F 0.090 -0.380 +13° 49' 36.40" 1.000E-01 0.500 F 0.197 -0.047 18.2 V 0.70 0.14 o 691 0.77 Yes Yes
2007FB O C 2007-03-16.19298 1.000E-05 11:56:13.380 1.500E-01 0.500 F 0.166 0.013 +07° 02' 10.60" 1.000E-01 0.500 F 0.084 -0.032 20.5 V 0.70 -0.07 o 691 0.14 Yes Yes
2002AD9 O C 2007-03-16.20057 1.000E-05 12:03:51.590 1.500E-01 0.500 F 0.165 -0.192 +04° 43' 15.40" 1.000E-01 0.500 F 0.078 -0.552 20.8 V 0.70 0.32 o 691 1.17 Yes Yes
2007CO26 O C 2007-03-16.20562 1.000E-05 11:42:55.720 1.500E-01 0.500 F 0.194 -0.170 +05° 25' 27.70" 1.000E-01 0.500 F 0.287 -0.053 18.2 V 0.70 0.22 o 691 0.36 Yes Yes
2007FB O C 2007-03-16.21068 1.000E-05 11:56:17.770 1.500E-01 0.500 F 0.166 -0.038 +07° 03' 25.20" 1.000E-01 0.500 F 0.084 0.182 20.4 V 0.70 -0.17 o 691 0.46 Yes Yes
2002AD9 O C 2007-03-16.21827 1.000E-05 12:03:49.760 1.500E-01 0.500 F 0.165 -0.422 +04° 43' 21.80" 1.000E-01 0.500 F 0.078 -0.216 21.0 V 0.70 0.52 o 691 0.95 Yes Yes
2007CO26 O C 2007-03-16.22332 1.000E-05 11:42:56.980 1.500E-01 0.500 F 0.194 0.044 +05° 24' 21.50" 1.000E-01 0.500 F 0.287 0.232 18.2 V 0.70 0.21 o 691 0.48 Yes Yes
2007FB O C 2007-03-16.22839 1.000E-05 11:56:22.090 1.500E-01 0.500 F 0.166 0.025 +07° 04' 39.00" 1.000E-01 0.500 F 0.084 -0.154 20.3 V 0.70 -0.27 o 691 0.65 Yes Yes
2002AD9 O C 2007-03-16.23598 1.000E-05 12:03:47.940 1.500E-01 0.500 F 0.165 -0.455 +04° 43' 28.20" 1.000E-01 0.500 F 0.078 0.121 20.8 V 0.70 0.32 o 691 0.94 Yes Yes
2007CO26 O C 2007-03-16.24103 1.000E-05 11:42:58.190 1.500E-01 0.500 F 0.194 -0.161 +05° 23' 14.70" 1.000E-01 0.500 F 0.287 -0.066 18.2 V 0.70 0.21 o 691 0.35 Yes Yes
2010LY63 O C 2007-03-16.31457 1.000E-05 12:39:36.860 1.500E-01 0.500 F 0.304 -0.582 -11° 33' 24.10" 1.000E-01 0.500 F 0.122 -0.314 21.0 V 0.70 -0.18 o 691 1.33 Yes Yes
Oze O C 2007-03-16.31457 1.000E-05 12:44:58.280 1.500E-01 0.500 F 0.315 -0.226 -11° 49' 22.90" 1.000E-01 0.500 F 0.095 0.138 19.9 V 0.70 0.34 o 691 0.53 Yes Yes
2010LY63 O C 2007-03-16.33574 1.000E-05 12:39:35.300 1.500E-01 0.500 F 0.304 -0.426 -11° 33' 21.20" 1.000E-01 0.500 F 0.122 0.250 21.3 V 0.70 0.12 o 691 1.00 Yes Yes
Oze O C 2007-03-16.33574 1.000E-05 12:44:57.100 1.500E-01 0.500 F 0.315 -0.436 -11° 49' 17.20" 1.000E-01 0.500 F 0.095 -0.179 19.9 V 0.70 0.34 o 691 0.94 Yes Yes
2010LY63 O C 2007-03-16.35345 1.000E-05 12:39:34.010 1.500E-01 0.500 F 0.304 -0.059 -11° 33' 19.40" 1.000E-01 0.500 F 0.122 0.079 21.2 V 0.70 0.02 o 691 0.20 Yes Yes
Oze O C 2007-03-16.35345 1.000E-05 12:44:56.140 1.500E-01 0.500 F 0.315 -0.203 -11° 49' 12.00" 1.000E-01 0.500 F 0.095 -0.024 19.9 V 0.70 0.34 o 691 0.41 Yes Yes
2007FD O C 2007-03-16.36103 1.000E-05 12:56:46.310 1.500E-01 0.500 F 0.138 -0.121 -12° 43' 21.20" 1.000E-01 0.500 F 0.079 0.000 20.9 V 0.70 0.14 o 691 0.24 Yes Yes
2007FD O C 2007-03-16.38218 1.000E-05 12:56:44.710 1.500E-01 0.500 F 0.138 -0.396 -12° 43' 10.70" 1.000E-01 0.500 F 0.079 -0.126 21.1 V 0.70 0.34 o 691 0.84 Yes Yes
2007FD O C 2007-03-16.39989 1.000E-05 12:56:43.380 1.500E-01 0.500 F 0.138 -0.485 -12° 43' 01.80" 1.000E-01 0.500 F 0.079 -0.142 20.8 V 0.70 0.04 o 691 1.02 Yes Yes
2000LK O C 2007-03-16.47335 1.000E-05 13:43:06.300 1.500E-01 0.500 F -0.037 -0.147 -16° 51' 36.30" 1.000E-01 0.500 F 0.147 -0.520 20.5 V 0.70 0.27 o 691 1.09 Yes Yes
2005GN59 O C 2007-03-16.47335 1.000E-05 13:49:35.530 1.500E-01 0.500 F 0.016 -0.291 -17° 14' 35.90" 1.000E-01 0.500 F 0.086 -0.086 19.6 V 0.70 0.00 o 691 0.61 Yes Yes
2000LK O C 2007-03-16.49100 1.000E-05 13:43:02.340 1.500E-01 0.500 F -0.037 -0.246 -16° 51' 08.80" 1.000E-01 0.500 F 0.147 -0.035 20.8 V 0.70 0.57 o 691 0.50 Yes Yes
2005GN59 O C 2007-03-16.49100 1.000E-05 13:49:34.170 1.500E-01 0.500 F 0.016 -0.232 -17° 14' 26.20" 1.000E-01 0.500 F 0.086 -0.074 19.5 V 0.70 -0.10 o 691 0.48 Yes Yes
2000LK O C 2007-03-16.50865 1.000E-05 13:42:58.380 1.500E-01 0.500 F -0.037 -0.411 -16° 50' 42.20" 1.000E-01 0.500 F 0.147 -0.482 20.4 V 0.70 0.17 o 691 1.28 Yes Yes
2005GN59 O C 2007-03-16.50865 1.000E-05 13:49:32.820 1.500E-01 0.500 F 0.016 -0.068 -17° 14' 16.80" 1.000E-01 0.500 F 0.086 -0.393 19.6 V 0.70 0.00 o 691 0.80 Yes Yes
2002EZ11 O C H 2007-03-17.46430 1.000E-05 14:07:15.060 1.500E-01 0.500 F 0.222 -0.063 -10° 09' 15.00" 1.000E-01 0.500 F -0.001 -0.342 21.2 V 0.70 0.35 o 691 0.70 Yes Yes
2000NG11 O C H 2007-03-17.47435 1.000E-05 14:08:04.750 1.500E-01 0.500 F 0.304 0.112 -12° 07' 50.20" 1.000E-01 0.500 F 0.050 0.306 21.1 V 0.70 0.02 o 691 0.65 Yes Yes
2000NG11 O C H 2007-03-17.50728 1.000E-05 14:08:03.380 1.500E-01 0.500 F 0.304 0.269 -12° 07' 43.20" 1.000E-01 0.500 F 0.050 0.145 21.2 V 0.70 0.12 o 691 0.61 Yes Yes
1999AP10 O C H 2007-03-18.29260 1.000E-05 13:20:28.330 1.500E-01 0.500 F 0.246 0.095 -12° 01' 13.00" 1.000E-01 0.500 F 0.087 -0.009 21.4 V 0.70 0.02 o 691 0.19 Yes Yes
1999AP10 O C H 2007-03-18.31371 1.000E-05 13:20:27.070 1.500E-01 0.500 F 0.246 -0.654 -12° 01' 08.90" 1.000E-01 0.500 F 0.087 -0.407 21.4 V 0.70 0.02 o 691 1.54 Yes Yes
2000LK O C 2007-03-18.33836 1.000E-05 13:36:17.530 1.500E-01 0.500 F 0.082 0.017 -16° 03' 50.50" 1.000E-01 0.500 F 0.103 -0.281 20.4 V 0.70 0.19 o 691 0.57 Yes Yes
1995LE O C H 2007-03-18.33836 1.000E-05 13:33:58.230 1.500E-01 0.500 F 0.118 0.369 -15° 23' 26.50" 1.000E-01 0.500 F 0.058 -0.094 o 691 0.77 Yes No
2000LK O C 2007-03-18.35601 1.000E-05 13:36:13.600 1.500E-01 0.500 F 0.082 -0.183 -16° 03' 22.80" 1.000E-01 0.500 F 0.103 0.142 20.2 V 0.70 -0.01 o 691 0.47 Yes Yes
1995LE O C H 2007-03-18.35601 1.000E-05 13:33:57.430 1.500E-01 0.500 F 0.118 0.085 -15° 23' 23.50" 1.000E-01 0.500 F 0.058 -0.294 o 691 0.61 Yes No
2000LK O C 2007-03-18.37366 1.000E-05 13:36:09.680 1.500E-01 0.500 F 0.082 -0.223 -16° 02' 55.70" 1.000E-01 0.500 F 0.103 -0.069 20.5 V 0.70 0.29 o 691 0.47 Yes Yes
1995LE O C H 2007-03-18.37366 1.000E-05 13:33:56.670 1.500E-01 0.500 F 0.118 0.395 -15° 23' 20.60" 1.000E-01 0.500 F 0.058 -0.610 o 691 1.46 Yes No
2004JB12 O C H 2007-03-20.18052 1.000E-05 11:46:58.970 1.500E-01 0.500 F 0.132 -0.028 +07° 54' 43.20" 1.000E-01 0.500 F 0.146 -0.383 21.4 V 0.70 -0.34 o 691 0.77 Yes Yes
2002AD9 O C 2007-03-20.19058 1.000E-05 11:57:09.640 1.500E-01 0.500 F 0.120 -0.200 +05° 05' 23.00" 1.000E-01 0.500 F 0.136 0.111 21.2 V 0.70 0.73 o 691 0.46 Yes Yes
2002AD9 O C 2007-03-20.20830 1.000E-05 11:57:07.830 1.500E-01 0.500 F 0.120 -0.430 +05° 05' 28.50" 1.000E-01 0.500 F 0.136 -0.136 20.8 V 0.70 0.33 o 691 0.90 Yes Yes
2002AD9 O C 2007-03-20.22603 1.000E-05 11:57:06.060 1.500E-01 0.500 F 0.120 -0.016 +05° 05' 34.50" 1.000E-01 0.500 F 0.136 0.119 20.7 V 0.70 0.23 o 691 0.24 Yes Yes
2006FV35 O C H 2007-03-20.24562 1.000E-05 12:58:47.140 1.500E-01 0.500 F 0.202 -0.292 -04° 22' 14.10" 1.000E-01 0.500 F 0.099 0.081 20.7 V 0.70 -0.28 o 691 0.61 Yes Yes
2007FS35 O C 2007-03-20.25667 1.000E-05 12:39:26.200 1.500E-01 0.500 F 0.163 -0.264 -04° 13' 56.30" 1.000E-01 0.500 F 0.134 -0.181 21.1 V 0.70 0.14 o 691 0.64 Yes Yes
2006FV35 O C H 2007-03-20.26680 1.000E-05 12:58:44.030 1.500E-01 0.500 F 0.202 0.204 -04° 21' 36.30" 1.000E-01 0.500 F 0.099 -0.581 21.2 V 0.70 0.23 o 691 1.24 Yes Yes
2007FS35 O C 2007-03-20.27438 1.000E-05 12:39:24.970 1.500E-01 0.500 F 0.163 -0.428 -04° 13' 47.90" 1.000E-01 0.500 F 0.134 0.536 20.9 V 0.70 -0.06 o 691 1.38 Yes Yes
2006FV35 O C H 2007-03-20.28452 1.000E-05 12:58:41.370 1.500E-01 0.500 F 0.202 -0.074 -04° 21' 03.20" 1.000E-01 0.500 F 0.099 0.305 21.2 V 0.70 0.23 o 691 0.63 Yes Yes
2007FS35 O C 2007-03-20.29211 1.000E-05 12:39:23.760 1.500E-01 0.500 F 0.163 -0.215 -04° 13' 40.70" 1.000E-01 0.500 F 0.134 0.033 20.7 V 0.70 -0.26 o 691 0.44 Yes Yes

[1-200] [201-400] [401-600] [601-800] [801-1000] [1001-1200] [1201-1400] [1401-1600] [1601-1800] [1801-2000] [2001-2200] [2201-2400] [2401-2600] [2601-2800] [2801-3000] [3001-3200] [3201-3400] [3401-3600] [3601-3800] [3801-4000] [4001-4200] [4201-4400] [4401-4600] [4601-4800] [4801-5000] [5001-5200] [5201-5400] [5401-5600] [5601-5800] [5801-6000] [6001-6200] [6201-6400] [6401-6600] [6601-6800] [6801-7000] [7001-7200] [7201-7400] [7401-7600] [7601-7800] [7801-8000] [8001-8200] [8201-8400] [8401-8600] [8601-8800] [8801-9000] [9001-9200] [9201-9400] [9401-9600] [9601-9800] [9801-10000] [10001-10200] [10201-10400] [10401-10600] [10601-10800] [10801-11000] [11001-11200] [11201-11400] [11401-11600] [11601-11800] [11801-12000] [12001-12200] [12201-12400] [12401-12600] [12601-12800] [12801-13000] [13001-13200] [13201-13400] [13401-13600] [13601-13800] [13801-14000] [14001-14200] [14201-14400] [14401-14600] [14601-14800] [14801-15000] [15001-15200] [15201-15400] [15401-15600] [15601-15800] [15801-16000] [16001-16200] [16201-16400] [16401-16600] [16601-16800] [16801-17000] [17001-17200] [17201-17400] [17401-17600] [17601-17800] [17801-18000] [18001-18200] [18201-18400] [18401-18600] [18601-18800] [18801-19000] [19001-19200] [19201-19400] [19401-19600] [19601-19800] [19801-20000] [20001-20200] [20201-20400] [20401-20600] [20601-20800] [20801-21000] [21001-21200] [21201-21400] [21401-21600] [21601-21800] [21801-22000] [22001-22200] [22201-22400] [22401-22600] [22601-22800] [22801-23000] [23001-23200] [23201-23400] [23401-23600] [23601-23800] [23801-24000] [24001-24200] [24201-24400] [24401-24600] [24601-24800] [24801-25000] [25001-25200] [25201-25400] [25401-25600] [25601-25800] [25801-26000] [26001-26200] [26201-26400] [26401-26600] [26601-26800] [26801-27000] [27001-27200] [27201-27400] [27401-27600] [27601-27800] [27801-28000] [28001-28200] [28201-28400] [28401-28600] [28601-28800] [28801-29000] [29001-29200] [29201-29400] [29401-29600] [29601-29800] [29801-30000] [30001-30200] [30201-30400] [30401-30600] [30601-30800] [30801-31000] [31001-31200] [31201-31400] [31401-31600] [31601-31800] [31801-32000] [32001-32200] [32201-32400] [32401-32600] [32601-32800] [32801-33000] [33001-33200] [33201-33400] [33401-33600] [33601-33800] [33801-34000] [34001-34200] [34201-34400] [34401-34600] [34601-34800] [34801-35000] [35001-35200] [35201-35400] [35401-35600] [35601-35800] [35801-36000] [36001-36200] [36201-36400] [36401-36600] [36601-36800] [36801-37000] [37001-37200] [37201-37400] [37401-37600] [37601-37800] [37801-38000] [38001-38200] [38201-38400] [38401-38600] [38601-38800] [38801-39000] [39001-39200] [39201-39400] [39401-39600] [39601-39800] [39801-40000] [40001-40200] [40201-40400] [40401-40600] [40601-40800] [40801-41000] [41001-41200] [41201-41400] [41401-41600] [41601-41800] [41801-42000] [42001-42200] [42201-42400] [42401-42600] [42601-42800] [42801-43000] [43001-43200] [43201-43400] [43401-43600] [43601-43800] [43801-44000] [44001-44200] [44201-44400] [44401-44600] [44601-44800] [44801-45000] [45001-45200] [45201-45400] [45401-45600] [45601-45800] [45801-46000] [46001-46200] [46201-46400] [46401-46600] [46601-46800] [46801-47000] [47001-47200] [47201-47400] [47401-47600] [47601-47800] [47801-48000] [48001-48200] [48201-48400] [48401-48600] [48601-48800] [48801-49000] [49001-49200] [49201-49400] [49401-49600] [49601-49800] [49801-50000] [50001-50200] [50201-50388]